sensor_id;sensor_type;location;lat;lon;timestamp;temperature;humidity
1568;DHT22;777;47.156;8.326;2023-08-07T00:00:00;12.30;99.90
1568;DHT22;777;47.156;8.326;2023-08-07T00:02:31;12.30;99.90
1568;DHT22;777;47.156;8.326;2023-08-07T00:04:58;12.40;99.90
1568;DHT22;777;47.156;8.326;2023-08-07T00:07:26;12.40;99.90
1568;DHT22;777;47.156;8.326;2023-08-07T00:09:53;12.20;99.90
1568;DHT22;777;47.156;8.326;2023-08-07T00:12:20;11.90;99.90
1568;DHT22;777;47.156;8.326;2023-08-07T00:14:47;11.20;99.90
1568;DHT22;777;47.156;8.326;2023-08-07T00:17:16;11.10;99.90
1568;DHT22;777;47.156;8.326;2023-08-07T00:19:43;11.20;99.90
1568;DHT22;777;47.156;8.326;2023-08-07T00:22:10;11.30;99.90
1568;DHT22;777;47.156;8.326;2023-08-07T00:24:38;11.40;99.90
1568;DHT22;777;47.156;8.326;2023-08-07T00:27:06;11.40;99.90
1568;DHT22;777;47.156;8.326;2023-08-07T00:29:35;11.30;99.90
1568;DHT22;777;47.156;8.326;2023-08-07T00:32:02;11.30;99.90
1568;DHT22;777;47.156;8.326;2023-08-07T00:34:30;11.30;99.90
1568;DHT22;777;47.156;8.326;2023-08-07T00:36:57;11.00;99.90
1568;DHT22;777;47.156;8.326;2023-08-07T00:39:24;10.90;99.90
1568;DHT22;777;47.156;8.326;2023-08-07T00:41:52;11.00;99.90
1568;DHT22;777;47.156;8.326;2023-08-07T00:44:19;11.00;99.90
1568;DHT22;777;47.156;8.326;2023-08-07T00:46:46;11.20;99.90
1568;DHT22;777;47.156;8.326;2023-08-07T00:49:13;11.20;99.90
1568;DHT22;777;47.156;8.326;2023-08-07T00:51:41;11.30;99.90
1568;DHT22;777;47.156;8.326;2023-08-07T00:54:10;11.40;99.90
1568;DHT22;777;47.156;8.326;2023-08-07T00:56:37;11.10;99.90
1568;DHT22;777;47.156;8.326;2023-08-07T00:59:05;11.10;99.90
1568;DHT22;777;47.156;8.326;2023-08-07T01:01:33;11.10;99.90
1568;DHT22;777;47.156;8.326;2023-08-07T01:04:00;11.10;99.90
1568;DHT22;777;47.156;8.326;2023-08-07T01:06:27;11.20;99.90
1568;DHT22;777;47.156;8.326;2023-08-07T01:08:54;11.20;99.90
1568;DHT22;777;47.156;8.326;2023-08-07T01:11:27;11.20;99.90
1568;DHT22;777;47.156;8.326;2023-08-07T01:14:04;11.20;99.90
1568;DHT22;777;47.156;8.326;2023-08-07T01:16:48;11.10;99.90
1568;DHT22;777;47.156;8.326;2023-08-07T01:19:22;11.10;99.90
1568;DHT22;777;47.156;8.326;2023-08-07T01:22:04;11.10;99.90
1568;DHT22;777;47.156;8.326;2023-08-07T01:24:31;11.00;99.90
1568;DHT22;777;47.156;8.326;2023-08-07T01:27:02;10.90;99.90
1568;DHT22;777;47.156;8.326;2023-08-07T01:29:36;11.00;99.90
1568;DHT22;777;47.156;8.326;2023-08-07T01:32:06;11.00;99.90
1568;DHT22;777;47.156;8.326;2023-08-07T01:34:35;10.90;99.90
1568;DHT22;777;47.156;8.326;2023-08-07T01:37:06;11.00;99.90
1568;DHT22;777;47.156;8.326;2023-08-07T01:39:35;11.10;99.90
1568;DHT22;777;47.156;8.326;2023-08-07T01:42:03;11.10;99.90
1568;DHT22;777;47.156;8.326;2023-08-07T01:44:31;11.10;99.90
1568;DHT22;777;47.156;8.326;2023-08-07T01:46:58;11.00;99.90
1568;DHT22;777;47.156;8.326;2023-08-07T01:49:25;11.10;99.90
1568;DHT22;777;47.156;8.326;2023-08-07T01:51:52;11.10;99.90
1568;DHT22;777;47.156;8.326;2023-08-07T01:54:20;11.10;99.90
1568;DHT22;777;47.156;8.326;2023-08-07T01:56:47;11.10;99.90
1568;DHT22;777;47.156;8.326;2023-08-07T01:59:14;11.20;99.90
1568;DHT22;777;47.156;8.326;2023-08-07T02:01:41;11.20;99.90
1568;DHT22;777;47.156;8.326;2023-08-07T02:04:08;11.30;99.90
1568;DHT22;777;47.156;8.326;2023-08-07T02:06:35;11.40;99.90
1568;DHT22;777;47.156;8.326;2023-08-07T02:09:02;11.40;99.90
1568;DHT22;777;47.156;8.326;2023-08-07T02:11:31;11.40;99.90
1568;DHT22;777;47.156;8.326;2023-08-07T02:13:58;11.30;99.90
1568;DHT22;777;47.156;8.326;2023-08-07T02:16:25;11.30;99.90
1568;DHT22;777;47.156;8.326;2023-08-07T02:18:52;11.30;99.90
1568;DHT22;777;47.156;8.326;2023-08-07T02:21:19;11.20;99.90
1568;DHT22;777;47.156;8.326;2023-08-07T02:23:46;11.20;99.90
1568;DHT22;777;47.156;8.326;2023-08-07T02:26:13;11.10;99.90
1568;DHT22;777;47.156;8.326;2023-08-07T02:28:42;11.10;99.90
1568;DHT22;777;47.156;8.326;2023-08-07T02:31:09;11.10;99.90
1568;DHT22;777;47.156;8.326;2023-08-07T02:33:36;11.10;99.90
1568;DHT22;777;47.156;8.326;2023-08-07T02:36:03;11.10;99.90
1568;DHT22;777;47.156;8.326;2023-08-07T02:38:30;11.20;99.90
1568;DHT22;777;47.156;8.326;2023-08-07T02:40:57;11.20;99.90
1568;DHT22;777;47.156;8.326;2023-08-07T02:43:24;11.20;99.90
1568;DHT22;777;47.156;8.326;2023-08-07T02:45:54;11.10;99.90
1568;DHT22;777;47.156;8.326;2023-08-07T02:48:21;11.10;99.90
1568;DHT22;777;47.156;8.326;2023-08-07T02:50:48;11.10;99.90
1568;DHT22;777;47.156;8.326;2023-08-07T02:53:17;11.10;99.90
1568;DHT22;777;47.156;8.326;2023-08-07T02:55:44;11.00;99.90
1568;DHT22;777;47.156;8.326;2023-08-07T02:58:11;10.90;99.90
1568;DHT22;777;47.156;8.326;2023-08-07T03:00:38;10.80;99.90
1568;DHT22;777;47.156;8.326;2023-08-07T03:03:06;10.80;99.90
1568;DHT22;777;47.156;8.326;2023-08-07T03:05:33;10.80;99.90
1568;DHT22;777;47.156;8.326;2023-08-07T03:08:00;10.90;99.90
1568;DHT22;777;47.156;8.326;2023-08-07T03:10:27;10.90;99.90
1568;DHT22;777;47.156;8.326;2023-08-07T03:12:54;10.90;99.90
1568;DHT22;777;47.156;8.326;2023-08-07T03:15:21;10.90;99.90
1568;DHT22;777;47.156;8.326;2023-08-07T03:17:48;10.80;99.90
1568;DHT22;777;47.156;8.326;2023-08-07T03:20:17;10.90;99.90
1568;DHT22;777;47.156;8.326;2023-08-07T03:22:44;10.80;99.90
1568;DHT22;777;47.156;8.326;2023-08-07T03:25:11;10.90;99.90
1568;DHT22;777;47.156;8.326;2023-08-07T03:27:38;10.80;99.90
1568;DHT22;777;47.156;8.326;2023-08-07T03:30:06;10.90;99.90
1568;DHT22;777;47.156;8.326;2023-08-07T03:32:33;10.80;99.90
1568;DHT22;777;47.156;8.326;2023-08-07T03:35:01;10.80;99.90
1568;DHT22;777;47.156;8.326;2023-08-07T03:37:29;10.80;99.90
1568;DHT22;777;47.156;8.326;2023-08-07T03:39:56;10.70;99.90
1568;DHT22;777;47.156;8.326;2023-08-07T03:42:24;10.70;99.90
1568;DHT22;777;47.156;8.326;2023-08-07T03:44:51;10.70;99.90
1568;DHT22;777;47.156;8.326;2023-08-07T03:47:18;10.70;99.90
1568;DHT22;777;47.156;8.326;2023-08-07T03:49:45;10.70;99.90
1568;DHT22;777;47.156;8.326;2023-08-07T03:52:12;10.70;99.90
1568;DHT22;777;47.156;8.326;2023-08-07T03:54:40;10.80;99.90
1568;DHT22;777;47.156;8.326;2023-08-07T03:57:08;10.80;99.90
1568;DHT22;777;47.156;8.326;2023-08-07T03:59:37;10.80;99.90
1568;DHT22;777;47.156;8.326;2023-08-07T04:02:05;10.80;99.90
1568;DHT22;777;47.156;8.326;2023-08-07T04:04:32;10.70;99.90
1568;DHT22;777;47.156;8.326;2023-08-07T04:06:59;10.70;99.90
1568;DHT22;777;47.156;8.326;2023-08-07T04:09:26;10.70;99.90
1568;DHT22;777;47.156;8.326;2023-08-07T04:11:54;10.70;99.90
1568;DHT22;777;47.156;8.326;2023-08-07T04:14:22;10.70;99.90
1568;DHT22;777;47.156;8.326;2023-08-07T04:16:49;10.60;99.90
1568;DHT22;777;47.156;8.326;2023-08-07T04:19:16;10.60;99.90
1568;DHT22;777;47.156;8.326;2023-08-07T04:21:43;10.60;99.90
1568;DHT22;777;47.156;8.326;2023-08-07T04:24:10;10.60;99.90
1568;DHT22;777;47.156;8.326;2023-08-07T04:26:37;10.60;99.90
1568;DHT22;777;47.156;8.326;2023-08-07T04:29:06;10.60;99.90
1568;DHT22;777;47.156;8.326;2023-08-07T04:31:34;10.60;99.90
1568;DHT22;777;47.156;8.326;2023-08-07T04:34:01;10.60;99.90
1568;DHT22;777;47.156;8.326;2023-08-07T04:36:28;10.60;99.90
1568;DHT22;777;47.156;8.326;2023-08-07T04:38:55;10.70;99.90
1568;DHT22;777;47.156;8.326;2023-08-07T04:41:22;10.70;99.90
1568;DHT22;777;47.156;8.326;2023-08-07T04:43:49;10.80;99.90
1568;DHT22;777;47.156;8.326;2023-08-07T04:46:17;10.90;99.90
1568;DHT22;777;47.156;8.326;2023-08-07T04:48:44;11.00;99.90
1568;DHT22;777;47.156;8.326;2023-08-07T04:51:11;10.90;99.90
1568;DHT22;777;47.156;8.326;2023-08-07T04:53:38;11.00;99.90
1568;DHT22;777;47.156;8.326;2023-08-07T04:56:05;10.90;99.90
1568;DHT22;777;47.156;8.326;2023-08-07T04:58:32;10.90;99.90
1568;DHT22;777;47.156;8.326;2023-08-07T05:01:00;10.80;99.90
1568;DHT22;777;47.156;8.326;2023-08-07T05:03:28;10.90;99.90
1568;DHT22;777;47.156;8.326;2023-08-07T05:05:59;10.90;99.90
1568;DHT22;777;47.156;8.326;2023-08-07T05:08:27;10.90;99.90
1568;DHT22;777;47.156;8.326;2023-08-07T05:10:54;10.90;99.90
1568;DHT22;777;47.156;8.326;2023-08-07T05:13:21;11.00;99.90
1568;DHT22;777;47.156;8.326;2023-08-07T05:15:48;11.00;99.90
1568;DHT22;777;47.156;8.326;2023-08-07T05:18:15;11.10;99.90
1568;DHT22;777;47.156;8.326;2023-08-07T05:20:43;11.10;99.90
1568;DHT22;777;47.156;8.326;2023-08-07T05:23:10;11.10;99.90
1568;DHT22;777;47.156;8.326;2023-08-07T05:25:37;11.20;99.90
1568;DHT22;777;47.156;8.326;2023-08-07T05:28:04;11.30;99.90
1568;DHT22;777;47.156;8.326;2023-08-07T05:30:32;11.30;99.90
1568;DHT22;777;47.156;8.326;2023-08-07T05:32:59;11.20;99.90
1568;DHT22;777;47.156;8.326;2023-08-07T05:35:26;11.30;99.90
1568;DHT22;777;47.156;8.326;2023-08-07T05:37:54;11.20;99.90
1568;DHT22;777;47.156;8.326;2023-08-07T05:40:21;11.40;99.90
1568;DHT22;777;47.156;8.326;2023-08-07T05:42:48;11.50;99.90
1568;DHT22;777;47.156;8.326;2023-08-07T05:45:15;11.40;99.90
1568;DHT22;777;47.156;8.326;2023-08-07T05:47:42;11.50;99.90
1568;DHT22;777;47.156;8.326;2023-08-07T05:50:09;11.60;99.90
1568;DHT22;777;47.156;8.326;2023-08-07T05:52:36;11.50;99.90
1568;DHT22;777;47.156;8.326;2023-08-07T05:55:06;11.70;99.90
1568;DHT22;777;47.156;8.326;2023-08-07T05:57:34;11.80;99.90
1568;DHT22;777;47.156;8.326;2023-08-07T06:00:01;11.90;99.90
1568;DHT22;777;47.156;8.326;2023-08-07T06:02:37;11.80;99.90
1568;DHT22;777;47.156;8.326;2023-08-07T06:05:05;12.00;99.90
1568;DHT22;777;47.156;8.326;2023-08-07T06:07:32;12.00;99.90
1568;DHT22;777;47.156;8.326;2023-08-07T06:09:59;11.90;99.90
1568;DHT22;777;47.156;8.326;2023-08-07T06:12:27;11.70;99.90
1568;DHT22;777;47.156;8.326;2023-08-07T06:14:54;11.80;99.90
1568;DHT22;777;47.156;8.326;2023-08-07T06:17:22;11.80;99.90
1568;DHT22;777;47.156;8.326;2023-08-07T06:19:49;11.90;99.90
1568;DHT22;777;47.156;8.326;2023-08-07T06:22:16;11.90;99.90
1568;DHT22;777;47.156;8.326;2023-08-07T06:24:43;11.90;99.90
1568;DHT22;777;47.156;8.326;2023-08-07T06:27:10;11.80;99.90
1568;DHT22;777;47.156;8.326;2023-08-07T06:29:38;11.90;99.90
1568;DHT22;777;47.156;8.326;2023-08-07T06:32:06;12.00;99.90
1568;DHT22;777;47.156;8.326;2023-08-07T06:34:35;12.00;99.90
1568;DHT22;777;47.156;8.326;2023-08-07T06:37:04;12.20;99.90
1568;DHT22;777;47.156;8.326;2023-08-07T06:39:31;12.40;99.90
1568;DHT22;777;47.156;8.326;2023-08-07T06:41:58;12.70;99.90
1568;DHT22;777;47.156;8.326;2023-08-07T06:44:31;12.90;99.90
1568;DHT22;777;47.156;8.326;2023-08-07T06:47:01;13.10;99.90
1568;DHT22;777;47.156;8.326;2023-08-07T06:49:28;13.10;99.90
1568;DHT22;777;47.156;8.326;2023-08-07T06:51:57;13.00;99.90
1568;DHT22;777;47.156;8.326;2023-08-07T06:54:24;13.10;99.90
1568;DHT22;777;47.156;8.326;2023-08-07T06:56:51;13.10;99.90
1568;DHT22;777;47.156;8.326;2023-08-07T06:59:18;13.20;99.90
1568;DHT22;777;47.156;8.326;2023-08-07T07:01:45;13.10;99.90
1568;DHT22;777;47.156;8.326;2023-08-07T07:04:14;13.10;99.90
1568;DHT22;777;47.156;8.326;2023-08-07T07:06:41;13.10;99.90
1568;DHT22;777;47.156;8.326;2023-08-07T07:09:08;12.90;99.90
1568;DHT22;777;47.156;8.326;2023-08-07T07:11:35;13.00;99.90
1568;DHT22;777;47.156;8.326;2023-08-07T07:14:06;13.20;99.90
1568;DHT22;777;47.156;8.326;2023-08-07T07:16:33;13.20;99.90
1568;DHT22;777;47.156;8.326;2023-08-07T07:19:01;13.00;99.90
1568;DHT22;777;47.156;8.326;2023-08-07T07:21:30;13.30;99.90
1568;DHT22;777;47.156;8.326;2023-08-07T07:23:57;13.50;99.90
1568;DHT22;777;47.156;8.326;2023-08-07T07:26:24;13.50;99.90
1568;DHT22;777;47.156;8.326;2023-08-07T07:28:51;13.30;99.90
1568;DHT22;777;47.156;8.326;2023-08-07T07:31:18;13.30;99.90
1568;DHT22;777;47.156;8.326;2023-08-07T07:33:45;13.50;99.90
1568;DHT22;777;47.156;8.326;2023-08-07T07:36:16;13.50;99.90
1568;DHT22;777;47.156;8.326;2023-08-07T07:38:45;13.50;99.90
1568;DHT22;777;47.156;8.326;2023-08-07T07:41:13;13.70;99.90
1568;DHT22;777;47.156;8.326;2023-08-07T07:43:40;13.70;99.90
1568;DHT22;777;47.156;8.326;2023-08-07T07:46:07;13.60;99.90
1568;DHT22;777;47.156;8.326;2023-08-07T07:48:34;13.90;99.90
1568;DHT22;777;47.156;8.326;2023-08-07T07:51:01;14.00;99.90
1568;DHT22;777;47.156;8.326;2023-08-07T07:53:29;13.90;99.90
1568;DHT22;777;47.156;8.326;2023-08-07T07:55:58;14.10;99.90
1568;DHT22;777;47.156;8.326;2023-08-07T07:58:25;14.20;99.90
1568;DHT22;777;47.156;8.326;2023-08-07T08:00:52;14.30;99.90
1568;DHT22;777;47.156;8.326;2023-08-07T08:03:20;13.90;99.90
1568;DHT22;777;47.156;8.326;2023-08-07T08:05:49;14.00;99.90
1568;DHT22;777;47.156;8.326;2023-08-07T08:08:16;13.80;99.90
1568;DHT22;777;47.156;8.326;2023-08-07T08:10:44;14.00;99.90
1568;DHT22;777;47.156;8.326;2023-08-07T08:13:14;13.80;99.90
1568;DHT22;777;47.156;8.326;2023-08-07T08:15:41;14.20;99.90
1568;DHT22;777;47.156;8.326;2023-08-07T08:18:08;14.20;99.90
1568;DHT22;777;47.156;8.326;2023-08-07T08:20:35;14.20;99.90
1568;DHT22;777;47.156;8.326;2023-08-07T08:23:02;14.20;99.90
1568;DHT22;777;47.156;8.326;2023-08-07T08:25:30;14.10;99.90
1568;DHT22;777;47.156;8.326;2023-08-07T08:27:58;14.20;99.90
1568;DHT22;777;47.156;8.326;2023-08-07T08:30:27;13.70;99.90
1568;DHT22;777;47.156;8.326;2023-08-07T08:32:54;13.60;99.90
1568;DHT22;777;47.156;8.326;2023-08-07T08:35:21;13.50;99.90
1568;DHT22;777;47.156;8.326;2023-08-07T08:37:48;13.50;99.90
1568;DHT22;777;47.156;8.326;2023-08-07T08:40:15;13.50;99.90
1568;DHT22;777;47.156;8.326;2023-08-07T08:42:45;12.30;99.90
1568;DHT22;777;47.156;8.326;2023-08-07T08:45:13;12.30;99.90
1568;DHT22;777;47.156;8.326;2023-08-07T08:47:43;12.80;99.90
1568;DHT22;777;47.156;8.326;2023-08-07T08:50:13;13.20;99.90
1568;DHT22;777;47.156;8.326;2023-08-07T08:52:42;13.30;99.90
1568;DHT22;777;47.156;8.326;2023-08-07T08:55:10;13.30;99.90
1568;DHT22;777;47.156;8.326;2023-08-07T08:57:38;13.30;99.90
1568;DHT22;777;47.156;8.326;2023-08-07T09:00:07;13.30;99.90
1568;DHT22;777;47.156;8.326;2023-08-07T09:02:45;13.60;99.90
1568;DHT22;777;47.156;8.326;2023-08-07T09:05:15;13.90;99.90
1568;DHT22;777;47.156;8.326;2023-08-07T09:07:42;14.10;99.90
1568;DHT22;777;47.156;8.326;2023-08-07T09:10:12;14.40;99.90
1568;DHT22;777;47.156;8.326;2023-08-07T09:12:42;14.70;99.90
1568;DHT22;777;47.156;8.326;2023-08-07T09:15:15;15.30;99.90
1568;DHT22;777;47.156;8.326;2023-08-07T09:17:45;15.30;99.90
1568;DHT22;777;47.156;8.326;2023-08-07T09:20:12;15.60;99.90
1568;DHT22;777;47.156;8.326;2023-08-07T09:22:40;16.10;99.90
1568;DHT22;777;47.156;8.326;2023-08-07T09:25:08;16.50;99.90
1568;DHT22;777;47.156;8.326;2023-08-07T09:27:36;16.10;99.90
1568;DHT22;777;47.156;8.326;2023-08-07T09:30:06;15.50;99.90
1568;DHT22;777;47.156;8.326;2023-08-07T09:32:36;15.50;99.90
1568;DHT22;777;47.156;8.326;2023-08-07T09:35:06;13.80;99.90
1568;DHT22;777;47.156;8.326;2023-08-07T09:37:36;12.50;99.90
1568;DHT22;777;47.156;8.326;2023-08-07T09:40:05;12.70;99.90
1568;DHT22;777;47.156;8.326;2023-08-07T09:42:35;13.80;99.90
1568;DHT22;777;47.156;8.326;2023-08-07T09:45:19;14.40;99.90
1568;DHT22;777;47.156;8.326;2023-08-07T09:47:46;14.80;99.90
1568;DHT22;777;47.156;8.326;2023-08-07T09:50:16;14.80;99.90
1568;DHT22;777;47.156;8.326;2023-08-07T09:52:46;15.30;99.90
1568;DHT22;777;47.156;8.326;2023-08-07T09:55:14;15.40;99.90
1568;DHT22;777;47.156;8.326;2023-08-07T09:57:42;15.40;99.90
1568;DHT22;777;47.156;8.326;2023-08-07T10:00:10;15.20;99.90
1568;DHT22;777;47.156;8.326;2023-08-07T10:02:41;16.20;99.90
1568;DHT22;777;47.156;8.326;2023-08-07T10:05:10;17.20;99.90
1568;DHT22;777;47.156;8.326;2023-08-07T10:07:39;16.70;99.90
1568;DHT22;777;47.156;8.326;2023-08-07T10:10:07;16.40;99.90
1568;DHT22;777;47.156;8.326;2023-08-07T10:12:34;16.50;99.90
1568;DHT22;777;47.156;8.326;2023-08-07T10:15:02;16.60;99.90
1568;DHT22;777;47.156;8.326;2023-08-07T10:17:30;16.60;99.90
1568;DHT22;777;47.156;8.326;2023-08-07T10:19:58;16.10;99.90
1568;DHT22;777;47.156;8.326;2023-08-07T10:22:25;15.90;99.90
1568;DHT22;777;47.156;8.326;2023-08-07T10:24:57;15.80;99.90
1568;DHT22;777;47.156;8.326;2023-08-07T10:27:25;15.70;99.90
1568;DHT22;777;47.156;8.326;2023-08-07T10:29:54;15.70;99.90
1568;DHT22;777;47.156;8.326;2023-08-07T10:32:23;16.30;99.90
1568;DHT22;777;47.156;8.326;2023-08-07T10:34:51;16.30;99.90
1568;DHT22;777;47.156;8.326;2023-08-07T10:37:32;16.40;99.90
1568;DHT22;777;47.156;8.326;2023-08-07T10:40:07;18.00;99.90
1568;DHT22;777;47.156;8.326;2023-08-07T10:42:55;18.30;99.90
1568;DHT22;777;47.156;8.326;2023-08-07T10:45:23;18.20;99.90
1568;DHT22;777;47.156;8.326;2023-08-07T10:48:05;18.80;99.90
1568;DHT22;777;47.156;8.326;2023-08-07T10:50:34;17.60;99.90
1568;DHT22;777;47.156;8.326;2023-08-07T10:53:02;17.00;99.90
1568;DHT22;777;47.156;8.326;2023-08-07T10:55:44;16.70;99.90
1568;DHT22;777;47.156;8.326;2023-08-07T10:58:22;16.90;99.90
1568;DHT22;777;47.156;8.326;2023-08-07T11:00:50;16.40;99.90
1568;DHT22;777;47.156;8.326;2023-08-07T11:03:25;16.00;99.90
1568;DHT22;777;47.156;8.326;2023-08-07T11:05:53;16.40;99.90
1568;DHT22;777;47.156;8.326;2023-08-07T11:08:22;16.80;99.90
1568;DHT22;777;47.156;8.326;2023-08-07T11:10:51;17.00;99.90
1568;DHT22;777;47.156;8.326;2023-08-07T11:13:18;16.70;99.90
1568;DHT22;777;47.156;8.326;2023-08-07T11:15:46;16.50;99.90
1568;DHT22;777;47.156;8.326;2023-08-07T11:18:14;16.40;99.90
1568;DHT22;777;47.156;8.326;2023-08-07T11:20:42;16.00;99.90
1568;DHT22;777;47.156;8.326;2023-08-07T11:23:09;16.00;99.90
1568;DHT22;777;47.156;8.326;2023-08-07T11:25:37;16.20;99.90
1568;DHT22;777;47.156;8.326;2023-08-07T11:28:05;16.50;99.90
1568;DHT22;777;47.156;8.326;2023-08-07T11:30:34;16.40;99.90
1568;DHT22;777;47.156;8.326;2023-08-07T11:33:01;16.40;99.90
1568;DHT22;777;47.156;8.326;2023-08-07T11:35:29;16.60;99.90
1568;DHT22;777;47.156;8.326;2023-08-07T11:37:56;16.90;99.90
1568;DHT22;777;47.156;8.326;2023-08-07T11:40:23;17.10;99.90
1568;DHT22;777;47.156;8.326;2023-08-07T11:42:58;17.70;99.90
1568;DHT22;777;47.156;8.326;2023-08-07T11:45:25;18.20;99.90
1568;DHT22;777;47.156;8.326;2023-08-07T11:47:53;19.10;99.90
1568;DHT22;777;47.156;8.326;2023-08-07T11:50:21;19.20;99.90
1568;DHT22;777;47.156;8.326;2023-08-07T11:52:49;18.40;99.90
1568;DHT22;777;47.156;8.326;2023-08-07T11:55:17;18.70;99.90
1568;DHT22;777;47.156;8.326;2023-08-07T11:57:46;19.00;99.90
1568;DHT22;777;47.156;8.326;2023-08-07T12:00:15;19.50;99.90
1568;DHT22;777;47.156;8.326;2023-08-07T12:02:42;19.70;99.90
1568;DHT22;777;47.156;8.326;2023-08-07T12:05:10;19.90;99.90
1568;DHT22;777;47.156;8.326;2023-08-07T12:07:38;19.90;99.90
1568;DHT22;777;47.156;8.326;2023-08-07T12:10:07;19.40;99.90
1568;DHT22;777;47.156;8.326;2023-08-07T12:12:36;19.10;99.90
1568;DHT22;777;47.156;8.326;2023-08-07T12:15:07;18.80;99.90
1568;DHT22;777;47.156;8.326;2023-08-07T12:17:36;18.50;99.90
1568;DHT22;777;47.156;8.326;2023-08-07T12:20:04;18.40;99.90
1568;DHT22;777;47.156;8.326;2023-08-07T12:22:33;18.40;99.90
1568;DHT22;777;47.156;8.326;2023-08-07T12:25:02;18.50;99.90
1568;DHT22;777;47.156;8.326;2023-08-07T12:27:30;18.50;99.90
1568;DHT22;777;47.156;8.326;2023-08-07T12:29:57;18.50;99.90
1568;DHT22;777;47.156;8.326;2023-08-07T12:32:24;18.60;99.90
1568;DHT22;777;47.156;8.326;2023-08-07T12:34:52;18.90;99.90
1568;DHT22;777;47.156;8.326;2023-08-07T12:37:19;19.10;99.90
1568;DHT22;777;47.156;8.326;2023-08-07T12:39:48;19.30;99.90
1568;DHT22;777;47.156;8.326;2023-08-07T12:42:15;19.50;99.90
1568;DHT22;777;47.156;8.326;2023-08-07T12:44:42;20.30;99.90
1568;DHT22;777;47.156;8.326;2023-08-07T12:47:09;22.20;99.90
1568;DHT22;777;47.156;8.326;2023-08-07T12:49:36;23.20;99.90
1568;DHT22;777;47.156;8.326;2023-08-07T12:52:05;22.60;99.90
1568;DHT22;777;47.156;8.326;2023-08-07T12:54:32;21.20;99.90
1568;DHT22;777;47.156;8.326;2023-08-07T12:56:59;19.10;99.90
1568;DHT22;777;47.156;8.326;2023-08-07T12:59:26;19.30;99.90
1568;DHT22;777;47.156;8.326;2023-08-07T13:01:53;20.30;99.90
1568;DHT22;777;47.156;8.326;2023-08-07T13:04:20;19.90;99.90
1568;DHT22;777;47.156;8.326;2023-08-07T13:06:47;18.40;99.90
1568;DHT22;777;47.156;8.326;2023-08-07T13:09:16;18.30;99.90
1568;DHT22;777;47.156;8.326;2023-08-07T13:11:43;18.50;99.90
1568;DHT22;777;47.156;8.326;2023-08-07T13:14:10;18.20;99.90
1568;DHT22;777;47.156;8.326;2023-08-07T13:16:37;17.50;99.90
1568;DHT22;777;47.156;8.326;2023-08-07T13:19:04;16.50;99.90
1568;DHT22;777;47.156;8.326;2023-08-07T13:21:31;16.30;99.90
1568;DHT22;777;47.156;8.326;2023-08-07T13:23:58;16.00;99.90
1568;DHT22;777;47.156;8.326;2023-08-07T13:26:27;15.60;99.90
1568;DHT22;777;47.156;8.326;2023-08-07T13:28:54;15.50;99.90
1568;DHT22;777;47.156;8.326;2023-08-07T13:31:21;15.40;99.90
1568;DHT22;777;47.156;8.326;2023-08-07T13:33:48;15.40;99.90
1568;DHT22;777;47.156;8.326;2023-08-07T13:36:15;15.60;99.90
1568;DHT22;777;47.156;8.326;2023-08-07T13:38:43;16.00;99.90
1568;DHT22;777;47.156;8.326;2023-08-07T13:41:10;16.10;99.90
1568;DHT22;777;47.156;8.326;2023-08-07T13:43:39;16.80;99.90
1568;DHT22;777;47.156;8.326;2023-08-07T13:46:06;17.30;99.90
1568;DHT22;777;47.156;8.326;2023-08-07T13:48:32;18.40;99.90
1568;DHT22;777;47.156;8.326;2023-08-07T13:50:59;18.10;99.90
1568;DHT22;777;47.156;8.326;2023-08-07T13:53:30;18.50;99.90
1568;DHT22;777;47.156;8.326;2023-08-07T13:55:57;18.10;99.90
1568;DHT22;777;47.156;8.326;2023-08-07T13:58:24;18.50;99.90
1568;DHT22;777;47.156;8.326;2023-08-07T14:00:52;18.70;99.90
1568;DHT22;777;47.156;8.326;2023-08-07T14:03:19;20.20;99.90
1568;DHT22;777;47.156;8.326;2023-08-07T14:05:46;19.00;99.90
1568;DHT22;777;47.156;8.326;2023-08-07T14:08:14;17.90;99.90
1568;DHT22;777;47.156;8.326;2023-08-07T14:10:41;17.00;99.90
1568;DHT22;777;47.156;8.326;2023-08-07T14:13:08;16.80;99.90
1568;DHT22;777;47.156;8.326;2023-08-07T14:15:35;17.10;99.90
1568;DHT22;777;47.156;8.326;2023-08-07T14:18:04;16.80;99.90
1568;DHT22;777;47.156;8.326;2023-08-07T14:20:31;17.00;99.90
1568;DHT22;777;47.156;8.326;2023-08-07T14:22:58;16.80;99.90
1568;DHT22;777;47.156;8.326;2023-08-07T14:25:25;16.80;99.90
1568;DHT22;777;47.156;8.326;2023-08-07T14:27:52;17.20;99.90
1568;DHT22;777;47.156;8.326;2023-08-07T14:30:20;16.80;99.90
1568;DHT22;777;47.156;8.326;2023-08-07T14:32:47;16.80;99.90
1568;DHT22;777;47.156;8.326;2023-08-07T14:35:16;17.00;99.90
1568;DHT22;777;47.156;8.326;2023-08-07T14:37:43;16.60;99.90
1568;DHT22;777;47.156;8.326;2023-08-07T14:40:10;17.20;99.90
1568;DHT22;777;47.156;8.326;2023-08-07T14:42:37;17.60;99.90
1568;DHT22;777;47.156;8.326;2023-08-07T14:45:05;18.10;99.90
1568;DHT22;777;47.156;8.326;2023-08-07T14:47:33;18.40;99.90
1568;DHT22;777;47.156;8.326;2023-08-07T14:49:59;18.40;99.90
1568;DHT22;777;47.156;8.326;2023-08-07T14:52:28;18.00;99.90
1568;DHT22;777;47.156;8.326;2023-08-07T14:54:55;17.90;99.90
1568;DHT22;777;47.156;8.326;2023-08-07T14:57:23;17.70;99.90
1568;DHT22;777;47.156;8.326;2023-08-07T14:59:50;17.50;99.90
1568;DHT22;777;47.156;8.326;2023-08-07T15:02:17;16.90;99.90
1568;DHT22;777;47.156;8.326;2023-08-07T15:04:44;17.30;99.90
1568;DHT22;777;47.156;8.326;2023-08-07T15:07:11;17.10;99.90
1568;DHT22;777;47.156;8.326;2023-08-07T15:09:39;17.10;99.90
1568;DHT22;777;47.156;8.326;2023-08-07T15:12:07;16.80;99.90
1568;DHT22;777;47.156;8.326;2023-08-07T15:14:34;16.70;99.90
1568;DHT22;777;47.156;8.326;2023-08-07T15:17:02;16.40;99.90
1568;DHT22;777;47.156;8.326;2023-08-07T15:19:29;15.50;99.90
1568;DHT22;777;47.156;8.326;2023-08-07T15:21:56;15.80;99.90
1568;DHT22;777;47.156;8.326;2023-08-07T15:24:23;15.60;99.90
1568;DHT22;777;47.156;8.326;2023-08-07T15:26:51;15.80;99.90
1568;DHT22;777;47.156;8.326;2023-08-07T15:29:18;16.50;99.90
1568;DHT22;777;47.156;8.326;2023-08-07T15:31:45;17.20;99.90
1568;DHT22;777;47.156;8.326;2023-08-07T15:34:13;17.80;99.90
1568;DHT22;777;47.156;8.326;2023-08-07T15:36:40;16.70;99.90
1568;DHT22;777;47.156;8.326;2023-08-07T15:39:07;16.40;99.90
1568;DHT22;777;47.156;8.326;2023-08-07T15:44:03;16.20;99.90
1568;DHT22;777;47.156;8.326;2023-08-07T15:46:31;16.10;99.90
1568;DHT22;777;47.156;8.326;2023-08-07T15:48:58;16.10;99.90
1568;DHT22;777;47.156;8.326;2023-08-07T15:51:25;16.10;99.90
1568;DHT22;777;47.156;8.326;2023-08-07T15:53:55;16.40;99.90
1568;DHT22;777;47.156;8.326;2023-08-07T15:56:23;16.10;99.90
1568;DHT22;777;47.156;8.326;2023-08-07T15:58:50;15.80;99.90
1568;DHT22;777;47.156;8.326;2023-08-07T16:01:18;16.00;99.90
1568;DHT22;777;47.156;8.326;2023-08-07T16:03:46;16.40;99.90
1568;DHT22;777;47.156;8.326;2023-08-07T16:06:13;16.20;99.90
1568;DHT22;777;47.156;8.326;2023-08-07T16:08:39;16.50;99.90
1568;DHT22;777;47.156;8.326;2023-08-07T16:11:06;15.90;99.90
1568;DHT22;777;47.156;8.326;2023-08-07T16:13:33;15.50;99.90
1568;DHT22;777;47.156;8.326;2023-08-07T16:16:01;15.80;99.90
1568;DHT22;777;47.156;8.326;2023-08-07T16:18:30;15.20;99.90
1568;DHT22;777;47.156;8.326;2023-08-07T16:20:56;15.30;99.90
1568;DHT22;777;47.156;8.326;2023-08-07T16:23:23;15.40;99.90